Time;durP1;ratioP1;P1;durP2;ratioP2;P2;SDS_P1;SDS_P2;PMS_P1;PMS_P2;Temp;Humidity;BMP_temperature;BMP_pressure;BME280_temperature;BME280_humidity;BME280_pressure;Samples;Min_cycle;Max_cycle;Signal;HPM_P1;HPM_P2
2021/03/28 00:01:15;;;;;;;4.13;3.15;;;4.10;1.00;;;;;;5069216;28;20851;-66
2021/03/28 00:04:06;;;;;;;5.88;3.40;;;4.10;1.00;;;;;;5070169;28;20315;-65
2021/03/28 00:06:34;;;;;;;4.47;3.30;;;4.10;1.00;;;;;;5072838;28;20208;-66
2021/03/28 00:09:22;;;;;;;5.20;3.40;;;4.10;1.00;;;;;;5068625;28;20616;-67
2021/03/28 00:12:26;;;;;;;3.70;3.33;;;4.20;1.00;;;;;;5073765;28;20306;-67
2021/03/28 00:14:52;;;;;;;3.47;3.03;;;4.20;1.00;;;;;;5008775;28;20922;-67
2021/03/28 00:17:20;;;;;;;4.30;3.80;;;4.30;1.00;;;;;;5008979;28;20192;-67
2021/03/28 00:20:10;;;;;;;4.22;3.50;;;4.30;1.00;;;;;;5010246;28;20606;-66
2021/03/28 00:22:43;;;;;;;3.85;3.38;;;4.40;1.00;;;;;;5010561;28;20194;-65
2021/03/28 00:25:42;;;;;;;4.70;3.35;;;4.40;1.00;;;;;;5009826;28;20183;-66
2021/03/28 00:28:24;;;;;;;6.32;3.55;;;4.40;1.00;;;;;;5006958;28;20215;-66
2021/03/28 00:30:52;;;;;;;5.80;3.65;;;4.40;1.00;;;;;;5008407;28;20191;-66
2021/03/28 00:33:26;;;;;;;5.30;3.45;;;4.30;1.00;;;;;;5010403;28;20202;-65
2021/03/28 00:36:00;;;;;;;4.53;3.75;;;4.30;1.00;;;;;;5009314;28;20221;-67
2021/03/28 00:38:42;;;;;;;4.25;3.38;;;4.30;1.00;;;;;;5009204;28;20272;-66
2021/03/28 00:41:40;;;;;;;3.20;2.90;;;4.30;1.00;;;;;;5009243;28;20199;-65
2021/03/28 00:44:18;;;;;;;4.10;3.40;;;4.20;1.00;;;;;;4983729;28;20253;-67
2021/03/28 00:46:53;;;;;;;4.47;3.55;;;4.10;1.00;;;;;;5063768;28;20299;-66
2021/03/28 00:49:31;;;;;;;4.88;4.05;;;4.00;1.00;;;;;;5070927;28;20200;-66
2021/03/28 00:52:01;;;;;;;4.32;3.88;;;3.90;1.00;;;;;;5084413;28;20181;-66
2021/03/28 00:55:11;;;;;;;4.10;3.70;;;3.80;1.00;;;;;;5070927;28;20582;-67
2021/03/28 00:57:42;;;;;;;6.60;3.78;;;3.70;1.00;;;;;;5053146;28;20228;-66
2021/03/28 01:00:13;;;;;;;5.03;4.25;;;3.60;1.00;;;;;;5069723;28;20586;-66
2021/03/28 01:03:09;;;;;;;7.28;4.47;;;3.50;1.00;;;;;;5070306;28;20213;-67
2021/03/28 01:05:43;;;;;;;5.85;4.18;;;3.40;1.00;;;;;;5066702;28;21001;-67
2021/03/28 01:08:25;;;;;;;6.60;3.90;;;3.30;1.00;;;;;;5068756;28;20692;-65
2021/03/28 01:11:02;;;;;;;6.75;3.55;;;3.20;1.00;;;;;;5068731;28;20276;-67
2021/03/28 01:14:02;;;;;;;6.30;4.25;;;3.20;1.00;;;;;;5062651;28;20229;-66
2021/03/28 01:16:34;;;;;;;5.35;4.53;;;3.10;1.00;;;;;;5070335;28;20188;-66
2021/03/28 01:19:18;;;;;;;5.03;3.78;;;3.00;2.70;;;;;;5069438;28;20192;-67
2021/03/28 01:21:55;;;;;;;3.95;3.55;;;3.00;6.90;;;;;;5057817;28;20184;-66
2021/03/28 01:24:45;;;;;;;4.07;3.65;;;3.00;5.60;;;;;;5064433;28;20192;-67
2021/03/28 01:27:33;;;;;;;4.95;3.55;;;3.00;12.80;;;;;;5069146;28;20850;-66
2021/03/28 01:29:58;;;;;;;5.15;4.00;;;2.90;17.60;;;;;;5057252;28;20700;-65
2021/03/28 01:32:44;;;;;;;5.17;3.90;;;2.90;21.60;;;;;;5068010;28;20188;-66
2021/03/28 01:35:10;;;;;;;4.78;4.18;;;2.80;24.00;;;;;;5066467;28;20815;-67
2021/03/28 01:37:53;;;;;;;6.37;4.33;;;2.80;24.80;;;;;;5059741;28;20193;-66
2021/03/28 01:40:43;;;;;;;9.07;4.40;;;2.80;28.30;;;;;;5065636;28;20209;-67
2021/03/28 01:43:48;;;;;;;7.00;5.00;;;2.70;29.10;;;;;;5068707;28;20195;-67
2021/03/28 01:46:31;;;;;;;5.25;4.00;;;2.70;31.50;;;;;;5050273;28;20763;-65
2021/03/28 01:49:19;;;;;;;6.65;4.07;;;2.60;37.60;;;;;;5068231;28;20212;-66
2021/03/28 01:51:55;;;;;;;5.47;3.78;;;2.60;39.30;;;;;;5069496;28;20207;-65
2021/03/28 01:54:57;;;;;;;6.70;3.92;;;2.60;45.20;;;;;;5069884;28;20215;-65
2021/03/28 01:57:39;;;;;;;8.48;4.00;;;2.50;49.00;;;;;;5069015;28;20187;-65
2021/03/28 02:00:23;;;;;;;5.57;4.93;;;2.50;51.50;;;;;;5066625;28;20188;-66
2021/03/28 02:03:04;;;;;;;6.60;4.93;;;2.50;54.20;;;;;;5068451;28;20289;-65
2021/03/28 02:05:33;;;;;;;5.20;4.22;;;2.50;56.40;;;;;;5071905;28;20238;-65
2021/03/28 02:08:16;;;;;;;5.47;4.75;;;2.50;56.70;;;;;;5067060;28;20695;-65
2021/03/28 02:11:15;;;;;;;7.20;3.95;;;2.60;55.80;;;;;;5071710;28;20590;-66
2021/03/28 02:14:11;;;;;;;7.05;4.43;;;2.60;55.90;;;;;;5062236;28;20184;-66
2021/03/28 02:16:57;;;;;;;6.15;4.70;;;2.60;56.70;;;;;;5069577;28;20237;-65
2021/03/28 02:19:28;;;;;;;5.28;4.13;;;2.60;53.40;;;;;;5067038;28;21023;-65
2021/03/28 02:22:11;;;;;;;6.07;4.28;;;2.60;53.70;;;;;;5068605;28;20219;-65
2021/03/28 02:24:36;;;;;;;4.63;4.22;;;2.60;51.50;;;;;;5067019;28;20253;-64
2021/03/28 02:27:10;;;;;;;7.43;4.73;;;2.70;49.10;;;;;;5069159;28;20270;-65
2021/03/28 02:29:46;;;;;;;6.65;4.50;;;2.70;47.60;;;;;;5068547;28;20219;-66
2021/03/28 02:32:42;;;;;;;5.85;4.55;;;2.70;42.70;;;;;;5064966;28;20267;-65
2021/03/28 02:35:13;;;;;;;5.55;4.15;;;2.70;39.20;;;;;;5063378;28;20288;-65
2021/03/28 02:38:16;;;;;;;6.22;4.50;;;2.70;39.20;;;;;;5064532;28;20192;-66
2021/03/28 02:41:12;;;;;;;4.13;3.75;;;2.90;34.20;;;;;;5065317;28;20240;-65
2021/03/28 02:43:41;;;;;;;4.78;4.28;;;3.10;22.00;;;;;;5051896;28;20586;-66
2021/03/28 02:46:12;;;;;;;5.78;4.60;;;3.20;16.30;;;;;;5067747;28;20193;-66
2021/03/28 02:49:03;;;;;;;5.90;4.00;;;3.20;7.60;;;;;;5062271;28;20276;-66
2021/03/28 02:51:43;;;;;;;8.40;4.43;;;3.20;2.70;;;;;;5060627;28;20172;-66
2021/03/28 02:54:18;;;;;;;7.15;5.07;;;3.30;1.00;;;;;;5068709;28;20172;-66
2021/03/28 02:57:04;;;;;;;4.20;3.80;;;3.20;1.00;;;;;;5068599;28;20275;-66
2021/03/28 02:59:53;;;;;;;6.18;4.13;;;3.30;1.00;;;;;;5068800;28;20223;-66
2021/03/28 03:02:48;;;;;;;6.68;4.22;;;3.40;1.00;;;;;;5066152;28;20196;-66
2021/03/28 03:05:29;;;;;;;5.72;4.15;;;3.40;1.00;;;;;;5067920;28;20193;-66
2021/03/28 03:08:04;;;;;;;6.10;4.40;;;3.40;1.00;;;;;;5067782;28;20582;-66
2021/03/28 03:11:05;;;;;;;7.22;4.20;;;3.30;1.00;;;;;;5069116;28;20220;-66
2021/03/28 03:14:05;;;;;;;6.45;4.20;;;3.30;1.00;;;;;;5066305;28;20200;-66
2021/03/28 03:17:02;;;;;;;5.25;4.03;;;3.30;1.00;;;;;;5063596;28;20550;-66
2021/03/28 03:20:03;;;;;;;5.05;4.30;;;3.30;1.00;;;;;;5067540;28;20196;-66
2021/03/28 03:22:53;;;;;;;5.00;3.92;;;3.20;1.00;;;;;;5067307;28;20192;-66
2021/03/28 03:25:41;;;;;;;6.72;4.65;;;3.10;1.00;;;;;;5066922;28;20196;-66
2021/03/28 03:28:15;;;;;;;6.20;4.13;;;3.10;1.00;;;;;;5067348;28;20930;-66
2021/03/28 03:31:06;;;;;;;7.32;4.30;;;3.00;1.00;;;;;;5067359;28;20206;-66
2021/03/28 03:33:57;;;;;;;4.78;3.83;;;2.90;1.00;;;;;;5066813;28;20185;-66
2021/03/28 03:37:17;;;;;;;7.03;4.38;;;2.80;1.00;;;;;;5067842;28;20189;-67
2021/03/28 03:40:12;;;;;;;5.75;4.43;;;2.80;1.00;;;;;;5028088;28;20616;-66
2021/03/28 03:43:09;;;;;;;7.20;4.13;;;2.80;5.30;;;;;;5063896;28;20193;-67
2021/03/28 03:45:49;;;;;;;5.05;4.25;;;2.70;7.00;;;;;;5065350;28;20947;-66
2021/03/28 03:48:23;;;;;;;5.85;4.35;;;2.70;13.80;;;;;;5067398;28;20218;-67
2021/03/28 03:50:57;;;;;;;5.20;4.13;;;2.70;15.80;;;;;;5066362;28;20173;-68
2021/03/28 03:53:31;;;;;;;5.40;4.70;;;2.60;18.00;;;;;;5064041;28;20649;-66
2021/03/28 03:56:22;;;;;;;5.88;4.53;;;2.60;23.50;;;;;;5067364;28;20179;-65
2021/03/28 03:59:24;;;;;;;7.07;4.50;;;2.60;23.20;;;;;;5057396;28;20968;-66
2021/03/28 04:02:05;;;;;;;5.15;4.07;;;2.60;23.10;;;;;;5060997;28;20504;-67
2021/03/28 04:05:05;;;;;;;4.80;3.90;;;2.50;19.90;;;;;;5069597;28;20247;-62
2021/03/28 04:07:54;;;;;;;5.20;4.25;;;2.50;22.80;;;;;;5070302;28;20300;-62
2021/03/28 04:10:57;;;;;;;6.28;4.30;;;2.40;25.00;;;;;;5071548;28;20188;-63
2021/03/28 04:13:47;;;;;;;5.45;4.57;;;2.40;30.20;;;;;;5069807;28;20184;-62
2021/03/28 04:16:34;;;;;;;7.30;4.97;;;2.40;34.10;;;;;;5057704;28;20173;-62
2021/03/28 04:19:24;;;;;;;7.38;5.05;;;2.40;35.30;;;;;;5069213;28;20195;-62
2021/03/28 04:22:05;;;;;;;6.05;3.88;;;2.40;32.00;;;;;;5069961;28;20251;-62
2021/03/28 04:24:38;;;;;;;5.05;4.55;;;2.50;34.70;;;;;;5070960;28;20200;-62
2021/03/28 04:27:40;;;;;;;6.90;4.80;;;2.50;37.30;;;;;;5069602;28;20189;-62
2021/03/28 04:30:40;;;;;;;7.45;5.20;;;2.50;36.00;;;;;;5059054;28;20185;-62
2021/03/28 04:33:11;;;;;;;5.60;4.70;;;2.60;36.30;;;;;;5061603;28;20263;-62
2021/03/28 04:35:48;;;;;;;6.47;4.70;;;2.60;33.90;;;;;;5069158;28;20181;-62
2021/03/28 04:38:46;;;;;;;6.63;4.85;;;2.50;31.00;;;;;;5060126;28;20184;-61
2021/03/28 04:41:39;;;;;;;6.78;4.38;;;2.50;32.00;;;;;;5069308;28;20188;-62
2021/03/28 04:44:18;;;;;;;6.70;4.93;;;2.50;34.10;;;;;;5069312;28;20557;-63
2021/03/28 04:47:11;;;;;;;5.57;4.57;;;2.50;35.20;;;;;;5065271;28;20183;-62
2021/03/28 04:49:58;;;;;;;6.50;4.30;;;2.50;38.30;;;;;;5070639;28;20208;-61
2021/03/28 04:52:54;;;;;;;8.40;4.32;;;2.50;35.60;;;;;;5069763;28;20645;-61
2021/03/28 04:55:25;;;;;;;6.43;4.13;;;2.40;34.20;;;;;;5059522;28;20265;-62
2021/03/28 04:58:03;;;;;;;7.32;5.10;;;2.40;37.50;;;;;;5070725;28;20266;-62
2021/03/28 05:00:41;;;;;;;8.45;4.82;;;2.40;40.30;;;;;;5067746;28;20692;-61
2021/03/28 05:03:26;;;;;;;7.70;5.10;;;2.40;40.90;;;;;;5067145;28;20229;-62
2021/03/28 05:06:01;;;;;;;6.28;5.00;;;2.40;44.00;;;;;;5065930;28;20180;-63
2021/03/28 05:08:56;;;;;;;7.07;5.28;;;2.40;47.80;;;;;;5067887;28;21078;-62
2021/03/28 05:11:34;;;;;;;5.88;4.68;;;2.50;51.30;;;;;;5071203;28;20184;-62
2021/03/28 05:14:24;;;;;;;5.93;4.85;;;2.50;52.30;;;;;;5068306;28;20937;-62
2021/03/28 05:17:21;;;;;;;7.60;4.93;;;2.50;45.10;;;;;;5070445;28;20916;-61
2021/03/28 05:20:16;;;;;;;6.30;4.78;;;2.60;49.80;;;;;;5065003;28;20681;-61
2021/03/28 05:23:24;;;;;;;6.10;5.07;;;2.60;49.50;;;;;;5068810;28;20219;-61
2021/03/28 05:26:22;;;;;;;7.60;5.00;;;2.60;50.30;;;;;;5070716;28;20200;-62
2021/03/28 05:29:06;;;;;;;6.35;4.82;;;2.70;45.20;;;;;;5065128;28;20201;-61
2021/03/28 05:31:57;;;;;;;7.03;5.47;;;2.70;43.10;;;;;;5064635;28;20195;-61
2021/03/28 05:34:43;;;;;;;6.10;5.10;;;2.70;41.80;;;;;;5066213;28;20561;-62
2021/03/28 05:37:24;;;;;;;7.18;4.20;;;2.70;43.20;;;;;;5065946;28;20206;-63
2021/03/28 05:40:14;;;;;;;6.80;5.30;;;2.70;47.60;;;;;;5070496;28;20246;-61
2021/03/28 05:42:58;;;;;;;6.13;4.75;;;2.80;51.50;;;;;;5069307;28;20219;-61
2021/03/28 05:45:45;;;;;;;7.90;5.75;;;2.90;54.50;;;;;;5065390;28;20198;-62
2021/03/28 05:48:39;;;;;;;6.00;5.00;;;3.00;57.10;;;;;;5070095;28;20231;-61
2021/03/28 05:51:22;;;;;;;6.72;5.10;;;3.10;50.40;;;;;;5061295;28;20188;-62
2021/03/28 05:54:35;;;;;;;7.95;5.35;;;3.20;45.70;;;;;;5068522;28;20673;-63
2021/03/28 05:57:28;;;;;;;5.80;4.60;;;3.40;29.20;;;;;;5069248;28;20196;-62
2021/03/28 06:00:19;;;;;;;6.72;5.20;;;3.40;14.60;;;;;;5068773;28;20191;-62
2021/03/28 06:03:19;;;;;;;6.97;5.20;;;3.50;10.10;;;;;;5062231;28;20232;-62
2021/03/28 06:06:18;;;;;;;6.70;5.35;;;3.50;8.90;;;;;;5066944;28;20262;-62
2021/03/28 06:09:41;;;;;;;6.00;4.93;;;3.50;1.00;;;;;;5059051;28;20197;-63
2021/03/28 06:12:25;;;;;;;5.80;5.20;;;3.50;1.00;;;;;;5068376;28;20255;-62
2021/03/28 06:15:49;;;;;;;6.75;5.32;;;3.60;1.00;;;;;;5069237;28;20276;-61
2021/03/28 06:18:41;;;;;;;7.38;5.50;;;3.70;1.00;;;;;;5034534;28;20276;-63
2021/03/28 06:21:43;;;;;;;8.10;6.18;;;3.80;1.00;;;;;;5065403;28;20525;-63
2021/03/28 06:24:25;;;;;;;7.93;6.07;;;3.90;1.00;;;;;;5067006;28;20915;-63
2021/03/28 06:27:03;;;;;;;8.23;6.47;;;4.00;1.00;;;;;;5069191;28;21061;-67
2021/03/28 06:29:50;;;;;;;8.48;5.40;;;4.10;1.00;;;;;;5066424;28;20205;-67
2021/03/28 06:32:24;;;;;;;5.90;4.90;;;4.30;1.00;;;;;;5067420;28;20251;-67
2021/03/28 06:35:27;;;;;;;6.68;5.97;;;4.30;1.00;;;;;;5066567;28;20261;-67
2021/03/28 06:38:29;;;;;;;9.35;5.75;;;4.40;1.00;;;;;;5068839;28;20271;-67
2021/03/28 06:41:27;;;;;;;10.55;7.05;;;4.60;1.00;;;;;;5067889;28;20188;-66
2021/03/28 06:44:20;;;;;;;7.53;5.07;;;4.70;1.00;;;;;;5045581;28;20684;-66
2021/03/28 06:47:03;;;;;;;6.75;4.88;;;4.90;1.00;;;;;;5059545;28;20242;-66
2021/03/28 06:49:58;;;;;;;6.80;4.97;;;5.00;1.00;;;;;;5058954;28;20208;-67
2021/03/28 06:52:43;;;;;;;9.23;5.13;;;5.20;1.00;;;;;;5060107;28;20181;-67
2021/03/28 06:55:33;;;;;;;4.72;4.32;;;5.20;99.90;;;;;;5059277;28;20357;-66
2021/03/28 06:58:55;;;;;;;6.80;4.55;;;5.30;99.90;;;;;;5058319;28;20185;-66
2021/03/28 07:01:46;;;;;;;5.32;4.70;;;5.40;41.50;;;;;;5028655;28;20212;-66
2021/03/28 07:04:40;;;;;;;6.38;5.22;;;5.50;1.00;;;;;;5058891;28;20330;-65
2021/03/28 07:07:38;;;;;;;6.25;5.00;;;5.50;99.90;;;;;;5059050;28;20204;-61
2021/03/28 07:10:22;;;;;;;5.55;4.68;;;5.70;99.90;;;;;;5049429;28;20185;-64
2021/03/28 07:13:14;;;;;;;6.53;5.20;;;5.70;99.90;;;;;;5058735;28;20635;-65
2021/03/28 07:16:05;;;;;;;5.55;4.60;;;5.90;99.90;;;;;;5060223;28;20182;-64
2021/03/28 07:18:45;;;;;;;6.07;4.90;;;6.10;99.90;;;;;;5054537;28;20188;-64
2021/03/28 07:21:39;;;;;;;5.93;4.70;;;6.20;99.90;;;;;;5042216;28;20185;-65
2021/03/28 07:24:36;;;;;;;6.00;4.93;;;6.30;99.90;;;;;;5058496;28;20177;-62
2021/03/28 07:27:31;;;;;;;5.20;4.70;;;6.50;99.90;;;;;;5059992;28;20224;-63
2021/03/28 07:30:38;;;;;;;6.80;5.75;;;6.80;99.90;;;;;;5059140;28;20212;-63
2021/03/28 07:33:31;;;;;;;6.80;5.20;;;7.10;99.90;;;;;;5057750;28;20220;-63
2021/03/28 07:36:21;;;;;;;5.93;5.33;;;7.40;99.90;;;;;;5059254;28;20422;-63
2021/03/28 07:39:11;;;;;;;5.50;5.00;;;7.70;1.00;;;;;;5060001;28;20837;-63
2021/03/28 07:42:12;;;;;;;6.73;5.73;;;7.90;99.90;;;;;;5063175;28;21108;-64
2021/03/28 07:44:58;;;;;;;5.60;4.80;;;7.90;99.90;;;;;;5037726;28;20466;-62
2021/03/28 07:47:53;;;;;;;4.50;4.20;;;8.00;99.90;;;;;;5062670;28;20433;-63
2021/03/28 07:50:37;;;;;;;7.50;5.20;;;8.10;99.90;;;;;;5069066;28;20912;-62
2021/03/28 07:53:30;;;;;;;6.47;5.27;;;8.30;17.10;;;;;;5066077;28;20431;-63
2021/03/28 07:55:56;;;;;;;5.83;5.23;;;8.50;99.90;;;;;;5069525;28;20882;-62
2021/03/28 07:58:40;;;;;;;5.30;4.80;;;8.70;99.90;;;;;;5068940;28;20534;-61
2021/03/28 08:01:11;;;;;;;8.80;5.93;;;8.90;1.00;;;;;;5070730;28;20189;-63
2021/03/28 08:03:56;;;;;;;5.50;5.00;;;9.20;45.30;;;;;;5070452;28;20471;-63
2021/03/28 08:06:56;;;;;;;7.60;5.30;;;9.30;1.00;;;;;;5076120;28;20427;-63
2021/03/28 08:09:44;;;;;;;6.20;5.23;;;9.40;1.00;;;;;;5067436;28;20466;-64
2021/03/28 08:12:31;;;;;;;6.53;4.63;;;9.60;1.00;;;;;;5063690;28;21008;-64
2021/03/28 08:15:23;;;;;;;5.10;4.60;;;9.80;1.00;;;;;;5071230;28;20447;-64
2021/03/28 08:18:10;;;;;;;5.43;4.70;;;10.00;1.00;;;;;;5070253;28;20431;-65
2021/03/28 08:20:58;;;;;;;8.70;4.97;;;10.30;1.00;;;;;;5060757;28;20419;-64
2021/03/28 08:23:49;;;;;;;4.97;4.57;;;10.40;1.00;;;;;;5067757;28;20469;-64
2021/03/28 08:26:38;;;;;;;5.53;5.07;;;10.60;1.00;;;;;;5066184;28;20765;-64
2021/03/28 08:29:41;;;;;;;6.80;5.03;;;10.70;1.00;;;;;;5069260;28;20473;-64
2021/03/28 08:32:34;;;;;;;5.33;4.83;;;11.00;1.00;;;;;;5067438;28;20518;-64
2021/03/28 08:35:18;;;;;;;7.90;5.00;;;11.40;1.00;;;;;;5069356;28;21204;-65
2021/03/28 08:38:07;;;;;;;5.50;5.10;;;11.50;1.00;;;;;;5057133;28;20490;-64
2021/03/28 08:40:41;;;;;;;7.10;5.37;;;11.60;1.00;;;;;;5068214;28;20517;-64
2021/03/28 08:43:37;;;;;;;5.30;4.90;;;11.50;1.00;;;;;;5063307;28;20777;-64
2021/03/28 08:46:25;;;;;;;6.03;5.43;;;11.90;1.00;;;;;;5058231;28;20432;-64
2021/03/28 08:49:10;;;;;;;6.53;5.40;;;11.90;99.90;;;;;;5062769;28;20490;-64
2021/03/28 08:51:56;;;;;;;4.87;4.40;;;12.00;99.90;;;;;;5059320;28;20435;-63
2021/03/28 08:54:46;;;;;;;5.53;4.57;;;12.00;99.90;;;;;;5067202;28;20424;-64
2021/03/28 08:57:34;;;;;;;6.77;4.97;;;11.90;99.90;;;;;;5062985;28;20432;-63
2021/03/28 09:00:17;;;;;;;5.93;5.15;;;11.90;99.90;;;;;;5056527;28;20429;-64
2021/03/28 09:02:59;;;;;;;5.37;4.77;;;11.90;99.90;;;;;;5056733;28;20900;-64
2021/03/28 09:05:31;;;;;;;5.00;4.60;;;11.60;99.90;;;;;;5074925;28;20435;-64
2021/03/28 09:08:22;;;;;;;6.80;6.10;;;11.60;99.90;;;;;;5060896;28;20475;-64
2021/03/28 09:10:50;;;;;;;8.87;6.70;;;11.60;99.90;;;;;;5067259;28;20434;-64
2021/03/28 09:13:32;;;;;;;6.40;5.80;;;11.50;99.90;;;;;;5064603;28;20434;-65
2021/03/28 09:16:13;;;;;;;7.37;4.53;;;11.70;1.00;;;;;;5061608;28;20890;-65
2021/03/28 09:18:53;;;;;;;6.10;5.50;;;11.90;99.90;;;;;;5064523;28;20435;-65
2021/03/28 09:21:51;;;;;;;10.00;9.07;;;12.00;99.90;;;;;;5065731;28;20497;-65
2021/03/28 09:24:33;;;;;;;5.70;4.50;;;12.30;99.90;;;;;;5059963;28;20501;-64
2021/03/28 09:27:23;;;;;;;8.57;4.67;;;12.60;99.90;;;;;;5080791;28;20576;-63
2021/03/28 09:30:07;;;;;;;9.13;6.03;;;12.70;99.90;;;;;;5065106;28;20520;-63
2021/03/28 09:32:50;;;;;;;4.90;4.50;;;13.00;99.90;;;;;;5066392;28;20539;-63
2021/03/28 09:35:53;;;;;;;8.03;6.63;;;13.30;99.90;;;;;;5071054;28;20419;-64
2021/03/28 09:38:33;;;;;;;6.60;4.87;;;13.30;99.90;;;;;;5062843;28;20450;-65
2021/03/28 09:41:14;;;;;;;4.70;4.30;;;13.60;99.90;;;;;;5065191;28;20444;-65
2021/03/28 09:44:12;;;;;;;8.40;7.50;;;13.60;99.90;;;;;;5066262;28;20460;-62
2021/03/28 09:47:04;;;;;;;5.60;4.33;;;13.70;99.90;;;;;;5066128;28;20428;-63
2021/03/28 09:49:41;;;;;;;6.07;3.70;;;13.90;99.90;;;;;;5063783;28;20460;-62
2021/03/28 09:52:20;;;;;;;6.43;5.37;;;13.50;99.90;;;;;;5063008;28;20519;-64
2021/03/28 09:55:23;;;;;;;5.07;4.60;;;13.30;99.90;;;;;;5061370;28;20421;-63
2021/03/28 09:57:55;;;;;;;5.00;4.50;;;13.40;99.90;;;;;;5063746;28;20438;-63
2021/03/28 10:00:48;;;;;;;4.83;4.13;;;13.00;99.90;;;;;;5065320;28;20436;-64
2021/03/28 10:03:30;;;;;;;4.47;3.97;;;13.50;99.90;;;;;;5080837;28;20523;-63
2021/03/28 10:06:04;;;;;;;5.83;5.10;;;13.70;99.90;;;;;;5059587;28;20939;-64
2021/03/28 10:08:37;;;;;;;4.90;4.50;;;13.80;99.90;;;;;;5067305;28;20467;-64
2021/03/28 10:11:15;;;;;;;7.00;5.70;;;13.20;99.90;;;;;;5067971;28;20506;-64
2021/03/28 10:14:02;;;;;;;5.90;4.60;;;13.00;99.90;;;;;;5067710;28;20415;-63
2021/03/28 10:16:51;;;;;;;6.53;5.93;;;13.00;99.90;;;;;;5067139;28;20522;-64
2021/03/28 10:19:41;;;;;;;5.23;4.73;;;12.90;99.90;;;;;;5063830;28;21376;-64
2021/03/28 10:22:30;;;;;;;6.47;5.30;;;12.60;99.90;;;;;;5063574;28;20493;-63
2021/03/28 10:25:25;;;;;;;6.30;3.80;;;12.30;99.90;;;;;;5062163;28;21347;-65
2021/03/28 10:28:25;;;;;;;5.23;4.13;;;12.10;99.90;;;;;;5065910;28;20507;-65
2021/03/28 10:31:24;;;;;;;11.73;9.13;;;12.50;99.90;;;;;;5066898;28;20419;-65
2021/03/28 10:34:29;;;;;;;8.33;4.50;;;12.70;99.90;;;;;;5064332;28;20474;-65
2021/03/28 10:37:04;;;;;;;8.90;6.47;;;12.70;99.90;;;;;;5067484;28;20482;-65
2021/03/28 10:40:14;;;;;;;5.70;4.30;;;12.60;99.90;;;;;;5057067;28;20423;-65
2021/03/28 10:42:48;;;;;;;6.17;4.30;;;12.60;99.90;;;;;;5064535;28;20408;-65
2021/03/28 10:45:42;;;;;;;5.07;4.07;;;12.90;99.90;;;;;;5065915;28;20431;-65
2021/03/28 10:48:45;;;;;;;7.00;4.43;;;13.50;99.90;;;;;;5063621;28;20465;-63
2021/03/28 10:51:25;;;;;;;5.67;5.17;;;13.20;99.90;;;;;;5052762;28;20412;-63
2021/03/28 10:54:04;;;;;;;5.30;3.90;;;13.40;99.90;;;;;;5065587;28;20443;-64
2021/03/28 10:56:50;;;;;;;5.50;4.70;;;13.20;99.90;;;;;;5064858;28;20434;-63
2021/03/28 10:59:53;;;;;;;6.17;4.47;;;13.00;99.90;;;;;;5064913;28;20438;-63
2021/03/28 11:02:50;;;;;;;7.67;4.70;;;12.90;99.90;;;;;;5063117;28;21096;-63
2021/03/28 11:05:27;;;;;;;5.93;4.27;;;13.00;99.90;;;;;;5062723;28;20507;-64
2021/03/28 11:08:19;;;;;;;7.30;4.67;;;13.50;99.90;;;;;;5059690;28;20958;-64
2021/03/28 11:11:11;;;;;;;4.40;4.00;;;14.30;99.90;;;;;;5059332;28;20435;-66
2021/03/28 11:14:12;;;;;;;4.57;4.00;;;15.00;99.90;;;;;;5076874;28;20830;-66
2021/03/28 11:16:54;;;;;;;9.00;4.30;;;15.30;99.90;;;;;;5042098;28;21147;-65
2021/03/28 11:20:02;;;;;;;5.53;4.50;;;14.90;99.90;;;;;;5066289;28;20425;-65
2021/03/28 11:22:48;;;;;;;6.20;5.50;;;14.30;99.90;;;;;;5062441;28;20758;-63
2021/03/28 11:25:22;;;;;;;5.83;4.50;;;14.60;99.90;;;;;;5061479;28;20480;-64
2021/03/28 11:28:16;;;;;;;5.17;4.47;;;14.60;99.90;;;;;;5052029;28;20503;-65
2021/03/28 11:30:46;;;;;;;5.43;4.40;;;14.40;99.90;;;;;;5055185;28;20431;-64
2021/03/28 11:33:26;;;;;;;5.00;4.10;;;14.50;99.90;;;;;;5054198;28;20428;-65
2021/03/28 11:35:54;;;;;;;5.33;4.83;;;14.30;99.90;;;;;;5057708;28;20418;-64
2021/03/28 11:38:19;;;;;;;4.80;4.40;;;13.90;99.90;;;;;;5064525;28;20444;-63
2021/03/28 11:40:48;;;;;;;5.77;4.80;;;13.70;99.90;;;;;;5059844;28;20438;-63
2021/03/28 11:43:21;;;;;;;4.50;4.00;;;14.20;99.90;;;;;;5053331;28;20189;-67
2021/03/28 11:46:10;;;;;;;8.07;4.63;;;15.10;99.90;;;;;;5054183;28;20473;-64
2021/03/28 11:48:46;;;;;;;5.70;4.53;;;15.40;99.90;;;;;;5063605;28;21332;-65
2021/03/28 11:51:24;;;;;;;4.80;4.00;;;14.80;99.90;;;;;;5054902;28;20790;-65
2021/03/28 11:54:08;;;;;;;7.20;4.00;;;14.80;99.90;;;;;;5053226;28;20492;-64
2021/03/28 11:56:38;;;;;;;5.20;4.20;;;14.50;99.90;;;;;;5086336;28;20506;-64
2021/03/28 11:59:22;;;;;;;4.63;4.00;;;14.30;99.90;;;;;;5061209;28;21273;-65
2021/03/28 12:04:38;;;;;;;4.43;4.00;;;14.00;99.90;;;;;;5066704;28;20464;-66
2021/03/28 12:07:37;;;;;;;4.63;4.23;;;14.30;99.90;;;;;;5066501;28;20824;-66
2021/03/28 12:10:03;;;;;;;4.17;3.80;;;14.30;99.90;;;;;;5070962;28;20457;-65
2021/03/28 12:12:43;;;;;;;5.63;4.27;;;14.20;99.90;;;;;;5070833;28;20840;-65
2021/03/28 12:15:43;;;;;;;4.50;4.10;;;14.30;99.90;;;;;;5071021;28;20192;-64
2021/03/28 12:18:24;;;;;;;5.63;3.17;;;15.30;99.90;;;;;;5071267;28;20469;-64
2021/03/28 12:20:59;;;;;;;3.10;2.90;;;15.60;99.90;;;;;;5070972;28;20427;-65
2021/03/28 12:23:47;;;;;;;3.17;2.93;;;15.00;99.90;;;;;;5070075;28;20514;-64
2021/03/28 12:26:20;;;;;;;3.80;3.40;;;15.00;99.90;;;;;;5063881;28;20427;-63
2021/03/28 12:28:49;;;;;;;5.13;4.63;;;14.70;99.90;;;;;;5071220;28;20467;-65
2021/03/28 12:31:26;;;;;;;3.53;2.90;;;14.50;99.90;;;;;;5070293;28;20471;-65
2021/03/28 12:34:07;;;;;;;4.87;3.30;;;14.30;99.90;;;;;;5077087;28;20418;-64
2021/03/28 12:36:52;;;;;;;3.57;3.17;;;14.60;99.90;;;;;;5087995;28;20541;-65
2021/03/28 12:39:41;;;;;;;4.10;3.70;;;15.10;99.90;;;;;;5081115;28;20783;-65
2021/03/28 12:42:34;;;;;;;3.80;3.50;;;16.10;99.90;;;;;;5059798;28;20443;-65
2021/03/28 12:45:06;;;;;;;3.40;3.10;;;17.70;99.90;;;;;;5070847;28;20432;-65
2021/03/28 12:47:52;;;;;;;4.30;3.90;;;18.00;99.90;;;;;;5070904;28;20411;-64
2021/03/28 12:50:18;;;;;;;3.90;3.60;;;17.80;99.90;;;;;;5070443;28;20526;-64
2021/03/28 12:53:02;;;;;;;3.33;3.07;;;17.50;99.90;;;;;;5070676;28;20521;-64
2021/03/28 12:55:36;;;;;;;8.07;3.77;;;17.30;99.90;;;;;;5070628;28;20718;-65
2021/03/28 12:58:07;;;;;;;5.93;3.93;;;16.80;99.90;;;;;;5070300;28;20515;-64
2021/03/28 13:00:55;;;;;;;3.20;2.90;;;17.40;99.90;;;;;;5068509;28;20420;-64
2021/03/28 13:03:27;;;;;;;3.20;3.00;;;17.70;99.90;;;;;;5058715;28;20467;-65
2021/03/28 13:06:17;;;;;;;3.50;3.10;;;17.30;99.90;;;;;;5069667;28;20428;-63
2021/03/28 13:08:52;;;;;;;3.47;3.20;;;17.30;99.90;;;;;;5059938;28;20982;-64
2021/03/28 13:11:38;;;;;;;3.60;3.30;;;17.30;99.90;;;;;;5069364;28;20445;-64
2021/03/28 13:14:06;;;;;;;3.50;3.20;;;16.40;99.90;;;;;;5070245;28;20425;-64
2021/03/28 13:16:35;;;;;;;6.30;3.57;;;15.70;99.90;;;;;;5069621;28;20436;-64
2021/03/28 13:19:01;;;;;;;4.47;3.30;;;15.20;99.90;;;;;;5070038;28;20428;-65
2021/03/28 13:21:31;;;;;;;3.77;3.47;;;14.90;99.90;;;;;;5066694;28;20442;-65
2021/03/28 13:24:13;;;;;;;3.40;3.20;;;14.90;99.90;;;;;;5070031;28;20181;-64
2021/03/28 13:26:57;;;;;;;3.73;3.43;;;15.10;99.90;;;;;;5068997;28;20427;-64
2021/03/28 13:29:36;;;;;;;5.03;3.23;;;14.60;99.90;;;;;;5069817;28;20457;-64
2021/03/28 13:32:24;;;;;;;4.43;3.13;;;14.60;99.90;;;;;;5067832;28;20563;-64
2021/03/28 13:35:04;;;;;;;3.43;3.13;;;14.80;99.90;;;;;;5064856;28;20443;-65
2021/03/28 13:37:40;;;;;;;3.07;2.87;;;14.90;99.90;;;;;;5069755;28;20443;-64
2021/03/28 13:40:05;;;;;;;4.10;2.80;;;15.00;99.90;;;;;;5068520;28;20439;-64
2021/03/28 13:42:41;;;;;;;3.27;2.97;;;15.40;99.90;;;;;;5069340;28;20424;-64
2021/03/28 13:45:23;;;;;;;3.33;3.03;;;16.40;99.90;;;;;;5068668;28;20182;-64
2021/03/28 13:48:08;;;;;;;4.00;2.90;;;16.90;99.90;;;;;;5068128;28;20473;-64
2021/03/28 13:50:46;;;;;;;3.50;3.17;;;17.10;99.90;;;;;;5072910;28;20433;-64
2021/03/28 13:53:39;;;;;;;3.20;2.90;;;16.90;99.90;;;;;;5074821;28;20444;-63
2021/03/28 13:56:23;;;;;;;4.00;3.53;;;16.20;99.90;;;;;;5055106;28;20431;-64
2021/03/28 13:59:12;;;;;;;3.50;3.20;;;16.20;99.90;;;;;;5069065;28;20867;-65
2021/03/28 14:01:41;;;;;;;3.73;3.43;;;15.60;99.90;;;;;;5065834;28;20433;-65
2021/03/28 14:04:21;;;;;;;3.20;2.90;;;15.30;99.90;;;;;;5065861;28;20471;-68
2021/03/28 14:06:59;;;;;;;2.90;2.70;;;14.80;99.90;;;;;;5063981;28;20430;-69
2021/03/28 14:09:33;;;;;;;3.23;3.00;;;14.70;99.90;;;;;;5062065;28;20461;-68
2021/03/28 14:12:03;;;;;;;2.80;2.60;;;14.70;99.90;;;;;;5056562;28;20813;-67
2021/03/28 14:14:37;;;;;;;4.00;2.87;;;14.60;99.90;;;;;;5061611;28;20984;-67
2021/03/28 14:17:22;;;;;;;3.30;2.87;;;14.70;99.90;;;;;;5059023;28;20493;-67
2021/03/28 14:19:50;;;;;;;4.60;3.37;;;14.60;99.90;;;;;;5068720;28;20431;-68
2021/03/28 14:22:46;;;;;;;3.60;3.10;;;14.60;99.90;;;;;;5067440;28;20527;-68
2021/03/28 14:25:29;;;;;;;3.70;3.50;;;14.50;99.90;;;;;;5068258;28;20414;-68
2021/03/28 14:27:55;;;;;;;3.40;3.10;;;14.30;99.90;;;;;;5067398;28;20508;-69
2021/03/28 14:30:34;;;;;;;3.53;3.30;;;14.20;99.90;;;;;;5068503;28;21112;-69
2021/03/28 14:33:18;;;;;;;7.13;3.50;;;13.90;99.90;;;;;;5068164;28;20191;-70